createdAt,value
2019-05-23T00:01:19.684Z,10.85
2019-05-23T00:03:49.758Z,11.20
2019-05-23T00:06:22.440Z,12.50
2019-05-23T00:08:52.529Z,10.50
2019-05-23T00:11:41.002Z,11.68
2019-05-23T00:14:28.897Z,13.05
2019-05-23T00:16:57.892Z,11.73
2019-05-23T00:19:26.770Z,11.40
2019-05-23T00:21:56.028Z,11.12
2019-05-23T00:24:25.189Z,11.33
2019-05-23T00:26:54.430Z,11.15
2019-05-23T00:29:22.853Z,11.00
2019-05-23T00:31:55.986Z,10.00
2019-05-23T00:34:25.864Z,10.35
2019-05-23T00:36:54.767Z,12.93
2019-05-23T00:39:24.540Z,11.40
2019-05-23T00:41:54.316Z,11.35
2019-05-23T00:44:23.046Z,10.82
2019-05-23T00:46:52.490Z,11.68
2019-05-23T00:49:22.027Z,10.25
2019-05-23T00:51:50.551Z,10.20
2019-05-23T00:54:19.737Z,10.70
2019-05-23T00:56:48.164Z,10.55
2019-05-23T00:59:26.443Z,20.57
2019-05-23T01:01:47.644Z,12.07
2019-05-23T01:04:16.775Z,10.03
2019-05-23T01:06:45.237Z,10.43
2019-05-23T01:09:14.867Z,10.15
2019-05-23T01:11:44.428Z,9.50
2019-05-23T01:14:12.943Z,10.15
2019-05-23T01:16:42.157Z,9.43
2019-05-23T01:19:13.271Z,10.05
2019-05-23T01:21:58.975Z,11.48
2019-05-23T01:24:29.740Z,9.05
2019-05-23T01:26:58.678Z,10.15
2019-05-23T01:29:37.452Z,10.53
2019-05-23T01:32:07.280Z,11.08
2019-05-23T01:34:36.870Z,9.88
2019-05-23T01:37:06.132Z,10.32
2019-05-23T01:39:35.454Z,11.05
2019-05-23T01:42:04.455Z,10.70
2019-05-23T01:44:33.960Z,9.50
2019-05-23T01:47:03.773Z,10.28
2019-05-23T01:49:33.036Z,10.35
2019-05-23T01:52:02.044Z,11.25
2019-05-23T01:54:30.569Z,10.30
2019-05-23T01:57:00.109Z,12.00
2019-05-23T01:59:28.842Z,12.30
2019-05-23T02:01:57.346Z,16.27
2019-05-23T02:04:25.924Z,16.70
2019-05-23T02:06:55.163Z,14.68
2019-05-23T02:09:23.845Z,15.50
2019-05-23T02:11:52.798Z,15.72
2019-05-23T02:14:21.281Z,15.32
2019-05-23T02:16:50.578Z,18.25
2019-05-23T02:19:20.144Z,15.70
2019-05-23T02:21:49.368Z,16.00
2019-05-23T02:24:18.703Z,14.90
2019-05-23T02:26:48.027Z,13.95
2019-05-23T02:29:17.269Z,13.75
2019-05-23T02:31:46.016Z,12.85
2019-05-23T02:34:15.285Z,14.55
2019-05-23T02:36:44.529Z,13.48
2019-05-23T02:39:30.388Z,13.40
2019-05-23T02:42:00.889Z,15.20
2019-05-23T02:44:31.012Z,13.35
2019-05-23T02:47:04.615Z,11.55
2019-05-23T02:49:34.483Z,11.55
2019-05-23T02:52:19.582Z,10.38
2019-05-23T02:54:47.983Z,11.93
2019-05-23T02:57:19.178Z,9.90
2019-05-23T02:59:52.148Z,9.95
2019-05-23T03:02:44.833Z,10.50
2019-05-23T03:05:15.314Z,10.50
2019-05-23T03:07:45.129Z,10.95
2019-05-23T03:10:13.976Z,9.45
2019-05-23T03:12:44.092Z,10.85
2019-05-23T03:15:14.537Z,9.15
2019-05-23T03:17:45.199Z,10.75
2019-05-23T03:20:14.059Z,10.63
2019-05-23T03:22:58.589Z,9.78
2019-05-23T03:25:36.685Z,11.68
2019-05-23T03:28:08.069Z,9.55
2019-05-23T03:30:38.413Z,10.90
2019-05-23T03:33:13.026Z,10.20
2019-05-23T03:35:51.985Z,9.98
2019-05-23T03:38:20.825Z,9.95
2019-05-23T03:40:49.630Z,10.32
2019-05-23T03:43:18.092Z,9.75
2019-05-23T03:45:57.525Z,10.28
2019-05-23T03:48:27.848Z,10.90
2019-05-23T03:50:58.211Z,10.50
2019-05-23T03:53:28.554Z,10.13
2019-05-23T03:55:58.695Z,11.28
2019-05-23T03:58:29.802Z,11.10
2019-05-23T04:01:00.063Z,12.33
2019-05-23T04:03:29.402Z,11.93
2019-05-23T04:05:58.784Z,11.33
2019-05-23T04:08:28.201Z,10.60
2019-05-23T04:10:57.540Z,10.53
2019-05-23T04:13:26.254Z,10.45
2019-05-23T04:15:54.839Z,10.65
2019-05-23T04:18:23.713Z,12.37
2019-05-23T04:20:52.399Z,10.40
2019-05-23T04:23:20.819Z,10.80
2019-05-23T04:25:49.842Z,12.68
2019-05-23T04:28:18.695Z,10.68
2019-05-23T04:30:47.581Z,11.60
2019-05-23T04:33:16.006Z,11.28
2019-05-23T04:35:45.446Z,11.75
2019-05-23T04:38:15.066Z,11.03
2019-05-23T04:40:43.539Z,11.75
2019-05-23T04:43:12.095Z,12.95
2019-05-23T04:45:41.858Z,11.57
2019-05-23T04:48:10.419Z,11.50
2019-05-23T04:50:39.395Z,11.48
2019-05-23T04:53:08.828Z,12.60
2019-05-23T04:55:38.078Z,12.20
2019-05-23T04:58:06.651Z,12.53
2019-05-23T05:00:35.790Z,13.15
2019-05-23T05:03:05.943Z,15.50
2019-05-23T05:05:35.398Z,18.57
2019-05-23T05:08:04.184Z,18.90
2019-05-23T05:10:32.777Z,17.20
2019-05-23T05:13:02.417Z,16.20
2019-05-23T05:15:30.925Z,15.35
2019-05-23T05:17:59.934Z,14.87
2019-05-23T05:20:28.496Z,13.05
2019-05-23T05:22:57.260Z,13.10
2019-05-23T05:25:26.288Z,13.72
2019-05-23T05:27:54.937Z,13.50
2019-05-23T05:30:23.794Z,15.73
2019-05-23T05:32:52.523Z,13.33
2019-05-23T05:35:21.032Z,13.13
2019-05-23T05:37:49.730Z,13.80
2019-05-23T05:40:18.679Z,15.73
2019-05-23T05:42:55.735Z,13.87
2019-05-23T05:45:24.381Z,14.53
2019-05-23T05:47:53.277Z,13.27
2019-05-23T05:50:22.370Z,14.03
2019-05-23T05:52:50.867Z,15.03
2019-05-23T05:55:19.276Z,15.17
2019-05-23T05:57:47.703Z,13.10
2019-05-23T06:00:19.227Z,15.37
2019-05-23T06:03:02.665Z,13.87
2019-05-23T06:05:35.806Z,13.83
2019-05-23T06:08:06.123Z,16.83
2019-05-23T06:10:35.054Z,15.27
2019-05-23T06:13:03.979Z,16.63
2019-05-23T06:15:34.260Z,15.83
2019-05-23T06:18:03.357Z,13.57
2019-05-23T06:20:32.996Z,17.17
2019-05-23T06:23:01.413Z,16.23
2019-05-23T06:25:29.920Z,17.40
2019-05-23T06:27:59.596Z,16.73
2019-05-23T06:30:32.612Z,16.27
2019-05-23T06:32:59.497Z,14.53
2019-05-23T06:35:28.980Z,17.40
2019-05-23T06:37:57.572Z,16.80
2019-05-23T06:40:26.226Z,15.80
2019-05-23T06:42:54.652Z,16.40
2019-05-23T06:45:23.242Z,15.93
2019-05-23T06:47:51.734Z,16.33
2019-05-23T06:50:21.643Z,15.20
2019-05-23T06:52:50.373Z,15.43
2019-05-23T06:55:18.794Z,14.63
2019-05-23T06:57:47.758Z,13.23
2019-05-23T07:00:18.296Z,16.10
2019-05-23T07:02:48.254Z,15.70
2019-05-23T07:05:18.900Z,12.80
2019-05-23T07:07:47.494Z,14.83
2019-05-23T07:10:16.553Z,15.47
2019-05-23T07:12:45.031Z,15.00
2019-05-23T07:15:13.745Z,15.50
2019-05-23T07:17:42.214Z,14.10
2019-05-23T07:20:12.358Z,13.67
2019-05-23T07:22:41.006Z,13.90
2019-05-23T07:25:09.664Z,15.67
2019-05-23T07:27:38.609Z,15.30
2019-05-23T07:30:12.722Z,13.43
2019-05-23T07:32:41.167Z,12.03
2019-05-23T07:35:10.105Z,13.50
2019-05-23T07:37:38.604Z,14.30
2019-05-23T07:40:07.484Z,11.30
2019-05-23T07:42:35.958Z,11.93
2019-05-23T07:45:07.389Z,11.23
2019-05-23T07:47:39.890Z,12.10
2019-05-23T07:50:09.778Z,12.33
2019-05-23T07:52:39.330Z,9.80
2019-05-23T07:55:25.742Z,10.70
2019-05-23T07:57:54.903Z,10.50
2019-05-23T08:00:28.526Z,10.87
2019-05-23T08:02:59.834Z,11.50
2019-05-23T08:05:28.940Z,9.47
2019-05-23T08:07:58.649Z,10.70
2019-05-23T08:10:33.588Z,10.20
2019-05-23T08:12:58.003Z,9.80
2019-05-23T08:15:26.412Z,9.83
2019-05-23T08:17:54.968Z,10.43
2019-05-23T08:20:23.960Z,10.33
2019-05-23T08:22:52.468Z,11.60
2019-05-23T08:25:20.968Z,11.00
2019-05-23T08:27:49.861Z,10.03
2019-05-23T08:30:18.427Z,9.13
2019-05-23T08:32:46.912Z,9.43
2019-05-23T08:35:17.837Z,7.30
2019-05-23T08:37:46.250Z,10.23
2019-05-23T08:40:15.709Z,9.10
2019-05-23T08:42:44.844Z,9.10
2019-05-23T08:45:14.195Z,6.93
2019-05-23T08:47:42.594Z,9.60
2019-05-23T08:50:11.847Z,9.67
2019-05-23T08:52:40.377Z,9.87
2019-05-23T08:55:25.852Z,9.20
2019-05-23T08:57:58.023Z,8.10
2019-05-23T09:00:28.399Z,7.20
2019-05-23T09:02:59.947Z,7.43
2019-05-23T09:05:30.760Z,6.53
2019-05-23T09:07:59.309Z,7.87
2019-05-23T09:10:34.892Z,8.90
2019-05-23T09:13:04.571Z,7.77
2019-05-23T09:15:32.991Z,7.27
2019-05-23T09:18:01.847Z,6.47
2019-05-23T09:20:31.193Z,6.87
2019-05-23T09:22:59.585Z,7.07
2019-05-23T09:25:28.006Z,6.70
2019-05-23T09:27:56.978Z,17.00
2019-05-23T09:30:26.140Z,9.13
2019-05-23T09:32:55.217Z,11.03
2019-05-23T09:35:23.697Z,15.90
2019-05-23T09:37:52.144Z,18.93
2019-05-23T09:40:21.509Z,6.40
2019-05-23T09:42:49.985Z,7.17
2019-05-23T09:45:18.401Z,6.80
2019-05-23T09:47:50.893Z,8.17
2019-05-23T09:50:18.581Z,6.60
2019-05-23T09:52:47.042Z,6.43
2019-05-23T09:55:16.056Z,6.90
2019-05-23T09:57:44.485Z,8.77
2019-05-23T10:00:15.089Z,7.50
2019-05-23T10:02:43.564Z,7.93
2019-05-23T10:05:13.028Z,9.13
2019-05-23T10:07:41.432Z,8.00
2019-05-23T10:10:11.419Z,8.50
2019-05-23T10:12:39.886Z,7.63
2019-05-23T10:15:15.097Z,7.60
2019-05-23T10:17:43.554Z,8.20
2019-05-23T10:20:12.849Z,7.43
2019-05-23T10:22:41.256Z,7.20
2019-05-23T10:25:09.913Z,5.97
2019-05-23T10:27:38.636Z,7.17
2019-05-23T10:30:10.362Z,7.10
2019-05-23T10:32:38.767Z,6.10
2019-05-23T10:35:08.217Z,7.63
2019-05-23T10:37:37.200Z,7.40
2019-05-23T10:40:06.412Z,9.03
2019-05-23T10:42:35.113Z,9.00
2019-05-23T10:45:05.711Z,7.43
2019-05-23T10:47:34.100Z,7.57
2019-05-23T10:50:07.900Z,8.03
2019-05-23T10:52:34.024Z,6.53
2019-05-23T10:55:02.908Z,8.40
2019-05-23T10:57:31.453Z,7.13
2019-05-23T10:59:59.891Z,7.80
2019-05-23T11:02:28.716Z,7.50
2019-05-23T11:04:57.433Z,7.90
2019-05-23T11:07:26.650Z,8.00
2019-05-23T11:09:55.586Z,6.77
2019-05-23T11:12:24.354Z,7.30
2019-05-23T11:14:53.320Z,8.23
2019-05-23T11:17:22.174Z,6.50
2019-05-23T11:19:50.981Z,6.77
2019-05-23T11:22:20.263Z,7.13
2019-05-23T11:24:48.668Z,6.80
2019-05-23T11:27:18.232Z,7.53
2019-05-23T11:29:46.666Z,7.20
2019-05-23T11:32:19.830Z,8.47
2019-05-23T11:34:46.341Z,7.13
2019-05-23T11:37:14.849Z,7.50
2019-05-23T11:39:49.688Z,7.40
2019-05-23T11:42:13.525Z,14.97
2019-05-23T11:44:41.973Z,7.20
2019-05-23T11:47:10.626Z,7.13
2019-05-23T11:49:39.581Z,7.07
2019-05-23T11:52:08.816Z,6.10
2019-05-23T11:54:38.332Z,7.10
2019-05-23T11:57:08.873Z,7.27
2019-05-23T11:59:37.441Z,6.13
2019-05-23T12:02:13.560Z,6.17
2019-05-23T12:04:42.359Z,6.90
2019-05-23T12:07:12.485Z,5.57
2019-05-23T12:09:40.917Z,5.63
2019-05-23T12:12:09.729Z,5.50
2019-05-23T12:14:39.851Z,5.60
2019-05-23T12:17:08.748Z,5.77
2019-05-23T12:19:37.819Z,5.00
2019-05-23T12:22:06.332Z,5.73
2019-05-23T12:24:35.777Z,5.90
2019-05-23T12:27:04.641Z,6.50
2019-05-23T12:29:33.394Z,5.93
2019-05-23T12:32:01.952Z,12.00
2019-05-23T12:34:30.765Z,5.50
2019-05-23T12:37:16.858Z,6.07
2019-05-23T12:39:29.468Z,5.03
2019-05-23T12:41:58.037Z,4.53
2019-05-23T12:44:26.544Z,4.60
2019-05-23T12:46:55.435Z,5.27
2019-05-23T12:49:28.318Z,5.17
2019-05-23T12:51:58.242Z,4.70
2019-05-23T12:54:26.677Z,5.00
2019-05-23T12:56:56.028Z,4.67
2019-05-23T12:59:25.393Z,5.20
2019-05-23T13:01:55.209Z,5.50
2019-05-23T13:04:24.531Z,4.70
2019-05-23T13:06:53.514Z,4.40
2019-05-23T13:09:21.998Z,4.20
2019-05-23T13:11:50.661Z,4.60
2019-05-23T13:14:19.601Z,4.93
2019-05-23T13:16:48.103Z,4.50
2019-05-23T13:19:16.881Z,4.80
2019-05-23T13:21:45.384Z,3.70
2019-05-23T13:24:13.888Z,4.67
2019-05-23T13:26:42.483Z,4.80
2019-05-23T13:29:10.973Z,5.33
2019-05-23T13:31:39.456Z,5.20
2019-05-23T13:34:08.008Z,4.83
2019-05-23T13:36:36.469Z,5.43
2019-05-23T13:39:08.202Z,5.07
2019-05-23T13:41:36.702Z,5.10
2019-05-23T13:44:05.656Z,4.90
2019-05-23T13:46:34.272Z,5.50
2019-05-23T13:49:02.688Z,4.73
2019-05-23T13:51:31.165Z,4.20
2019-05-23T13:53:59.883Z,4.87
2019-05-23T13:56:28.361Z,4.40
2019-05-23T13:58:57.127Z,4.43
2019-05-23T14:01:25.696Z,4.83
2019-05-23T14:03:54.503Z,4.03
2019-05-23T14:06:23.056Z,4.30
2019-05-23T14:08:51.642Z,3.93
2019-05-23T14:11:20.275Z,4.30
2019-05-23T14:13:59.168Z,3.97
2019-05-23T14:16:19.654Z,4.50
2019-05-23T14:18:48.504Z,4.70
2019-05-23T14:21:17.634Z,4.57
2019-05-23T14:23:46.078Z,4.63
2019-05-23T14:26:16.297Z,4.50
2019-05-23T14:28:44.715Z,4.20
2019-05-23T14:31:15.011Z,3.97
2019-05-23T14:34:00.552Z,3.43
2019-05-23T14:36:32.275Z,4.70
2019-05-23T14:39:02.469Z,4.70
2019-05-23T14:41:44.834Z,3.80
2019-05-23T14:44:03.022Z,3.70
2019-05-23T14:46:33.330Z,4.30
2019-05-23T14:49:03.725Z,4.90
2019-05-23T14:51:43.237Z,3.83
2019-05-23T14:54:14.842Z,3.73
2019-05-23T14:56:44.062Z,3.70
2019-05-23T14:59:12.622Z,3.37
2019-05-23T15:01:41.102Z,4.10
2019-05-23T15:04:10.365Z,3.87
2019-05-23T15:06:39.133Z,3.73
2019-05-23T15:09:09.104Z,4.17
2019-05-23T15:11:38.329Z,4.40
2019-05-23T15:14:06.891Z,4.07
2019-05-23T15:16:35.630Z,4.13
2019-05-23T15:19:04.748Z,3.50
2019-05-23T15:21:33.262Z,3.80
2019-05-23T15:24:01.820Z,2.97
2019-05-23T15:26:30.536Z,4.50
2019-05-23T15:28:59.323Z,3.57
2019-05-23T15:31:28.156Z,3.73
2019-05-23T15:33:56.760Z,3.87
2019-05-23T15:36:25.309Z,4.20
2019-05-23T15:39:08.180Z,3.30
2019-05-23T15:41:24.022Z,3.90
2019-05-23T15:43:52.446Z,3.40
2019-05-23T15:46:20.943Z,4.50
2019-05-23T15:48:49.422Z,3.63
2019-05-23T15:51:19.817Z,3.93
2019-05-23T15:53:49.892Z,4.10
2019-05-23T15:56:29.625Z,3.60
2019-05-23T15:59:18.029Z,4.10
2019-05-23T16:01:57.338Z,4.00
2019-05-23T16:04:25.807Z,3.47
2019-05-23T16:06:54.597Z,3.70
2019-05-23T16:09:30.215Z,3.63
2019-05-23T16:11:53.519Z,3.47
2019-05-23T16:14:23.586Z,3.20
2019-05-23T16:16:56.207Z,3.67
2019-05-23T16:19:23.121Z,3.40
2019-05-23T16:21:51.682Z,3.83
2019-05-23T16:24:20.445Z,3.33
2019-05-23T16:26:48.932Z,3.20
2019-05-23T16:29:17.911Z,4.10
2019-05-23T16:31:46.477Z,3.70
2019-05-23T16:34:14.942Z,3.70
2019-05-23T16:36:43.870Z,3.57
2019-05-23T16:39:12.362Z,3.47
2019-05-23T16:41:40.813Z,3.77
2019-05-23T16:44:09.213Z,3.47
2019-05-23T16:46:37.927Z,3.07
2019-05-23T16:49:06.499Z,3.67
2019-05-23T16:51:34.993Z,3.07
2019-05-23T16:54:03.523Z,3.37
2019-05-23T16:56:42.867Z,4.10
2019-05-23T16:59:12.929Z,2.67
2019-05-23T17:01:57.071Z,3.50
2019-05-23T17:04:35.678Z,3.13
2019-05-23T17:07:24.968Z,3.20
2019-05-23T17:10:08.835Z,3.13
2019-05-23T17:12:45.230Z,3.17
2019-05-23T17:15:31.205Z,3.80
2019-05-23T17:18:03.334Z,3.30
2019-05-23T17:20:45.165Z,3.30
2019-05-23T17:23:15.421Z,2.67
2019-05-23T17:25:48.349Z,3.40
2019-05-23T17:28:21.490Z,3.50
2019-05-23T17:30:51.612Z,3.20
2019-05-23T17:33:20.051Z,3.37
2019-05-23T17:35:48.867Z,3.93
2019-05-23T17:38:17.388Z,3.20
2019-05-23T17:40:45.992Z,3.17
2019-05-23T17:43:14.723Z,2.93
2019-05-23T17:45:43.694Z,3.40
2019-05-23T17:48:12.546Z,2.50
2019-05-23T17:50:41.125Z,2.50
2019-05-23T17:53:09.613Z,2.60
2019-05-23T17:55:39.691Z,2.10
2019-05-23T17:58:08.191Z,2.47
2019-05-23T18:00:38.001Z,2.50
2019-05-23T18:03:07.100Z,3.00
2019-05-23T18:05:36.138Z,2.80
2019-05-23T18:08:05.646Z,2.83
2019-05-23T18:10:44.659Z,2.60
2019-05-23T18:13:05.649Z,2.60
2019-05-23T18:15:34.181Z,3.20
2019-05-23T18:18:02.780Z,2.60
2019-05-23T18:20:31.569Z,2.60
2019-05-23T18:23:00.519Z,2.30
2019-05-23T18:25:29.864Z,2.83
2019-05-23T18:27:58.827Z,2.57
2019-05-23T18:30:45.360Z,6.30
2019-05-23T18:33:15.783Z,3.40
2019-05-23T18:35:44.257Z,2.50
2019-05-23T18:38:13.168Z,3.00
2019-05-23T18:40:41.929Z,2.50
2019-05-23T18:43:11.145Z,3.00
2019-05-23T18:45:40.799Z,3.07
2019-05-23T18:48:09.764Z,3.27
2019-05-23T18:50:38.557Z,3.03
2019-05-23T18:53:07.608Z,3.30
2019-05-23T18:55:36.533Z,2.23
2019-05-23T18:58:05.302Z,2.60
2019-05-23T19:00:56.654Z,3.10
2019-05-23T19:03:25.218Z,2.53
2019-05-23T19:05:53.786Z,2.40
2019-05-23T19:08:23.233Z,2.80
2019-05-23T19:10:51.866Z,3.60
2019-05-23T19:13:20.359Z,2.90
2019-05-23T19:15:49.237Z,2.77
2019-05-23T19:18:17.737Z,3.77
2019-05-23T19:20:46.187Z,2.97
2019-05-23T19:23:14.734Z,3.00
2019-05-23T19:25:44.586Z,3.10
2019-05-23T19:28:13.532Z,2.93
2019-05-23T19:30:42.281Z,3.13
2019-05-23T19:33:10.982Z,3.20
2019-05-23T19:35:40.029Z,2.90
2019-05-23T19:38:09.371Z,4.10
2019-05-23T19:40:38.050Z,3.97
2019-05-23T19:43:06.747Z,4.63
2019-05-23T19:45:36.061Z,4.70
2019-05-23T19:48:04.810Z,4.00
2019-05-23T19:50:33.938Z,4.63
2019-05-23T19:53:02.480Z,6.23
2019-05-23T19:55:31.723Z,6.20
2019-05-23T19:58:00.782Z,10.33
2019-05-23T20:00:31.203Z,6.30
2019-05-23T20:03:03.528Z,4.50
2019-05-23T20:05:34.364Z,4.50
2019-05-23T20:08:02.952Z,4.47
2019-05-23T20:10:32.097Z,5.83
2019-05-23T20:13:00.528Z,6.30
2019-05-23T20:15:29.674Z,11.00
2019-05-23T20:17:58.454Z,12.33
2019-05-23T20:20:27.659Z,7.13
2019-05-23T20:22:56.072Z,5.60
2019-05-23T20:25:24.744Z,5.47
2019-05-23T20:27:53.745Z,6.53
2019-05-23T20:30:46.198Z,8.27
2019-05-23T20:33:15.557Z,9.37
2019-05-23T20:35:44.093Z,8.13
2019-05-23T20:38:12.684Z,8.60
2019-05-23T20:40:41.204Z,8.53
2019-05-23T20:43:09.864Z,7.83
2019-05-23T20:45:38.597Z,7.63
2019-05-23T20:48:07.395Z,7.50
2019-05-23T20:50:36.064Z,7.97
2019-05-23T20:53:04.818Z,7.27
2019-05-23T20:55:33.607Z,7.77
2019-05-23T20:58:02.380Z,6.70
2019-05-23T21:00:35.081Z,6.47
2019-05-23T21:03:04.612Z,5.60
2019-05-23T21:05:35.890Z,6.17
2019-05-23T21:08:04.341Z,6.40
2019-05-23T21:10:45.408Z,6.80
2019-05-23T21:13:13.956Z,7.57
2019-05-23T21:15:42.399Z,6.93
2019-05-23T21:18:10.936Z,6.00
2019-05-23T21:20:39.542Z,5.30
2019-05-23T21:23:07.972Z,6.00
2019-05-23T21:25:38.041Z,5.30
2019-05-23T21:28:06.491Z,5.80
2019-05-23T21:30:34.998Z,6.40
2019-05-23T21:33:03.693Z,6.50
2019-05-23T21:35:33.357Z,5.80
2019-05-23T21:38:01.819Z,5.80
2019-05-23T21:40:35.938Z,7.00
2019-05-23T21:43:05.192Z,7.00
2019-05-23T21:45:34.443Z,6.20
2019-05-23T21:48:03.077Z,6.07
2019-05-23T21:50:31.777Z,6.67
2019-05-23T21:53:00.344Z,5.93
2019-05-23T21:55:42.656Z,5.37
2019-05-23T21:58:12.511Z,5.87
2019-05-23T22:01:06.764Z,5.40
2019-05-23T22:03:40.956Z,5.73
2019-05-23T22:06:13.648Z,5.90
2019-05-23T22:08:42.636Z,5.43
2019-05-23T22:11:11.120Z,5.97
2019-05-23T22:13:39.654Z,6.20
2019-05-23T22:16:09.685Z,5.83
2019-05-23T22:18:38.504Z,5.53
2019-05-23T22:21:06.994Z,5.80
2019-05-23T22:23:35.841Z,6.40
2019-05-23T22:26:04.490Z,6.30
2019-05-23T22:28:33.051Z,6.37
2019-05-23T22:31:01.703Z,6.27
2019-05-23T22:33:31.836Z,5.70
2019-05-23T22:36:03.054Z,4.93
2019-05-23T22:38:31.585Z,5.97
2019-05-23T22:41:00.164Z,6.17
2019-05-23T22:43:28.904Z,5.47
2019-05-23T22:45:57.345Z,6.10
2019-05-23T22:48:26.022Z,6.77
2019-05-23T22:50:54.466Z,6.57
2019-05-23T22:53:22.882Z,5.90
2019-05-23T22:55:51.376Z,6.20
2019-05-23T22:58:19.841Z,5.97
2019-05-23T23:00:49.437Z,6.93
2019-05-23T23:03:18.426Z,5.83
2019-05-23T23:05:46.972Z,6.43
2019-05-23T23:08:16.612Z,6.20
2019-05-23T23:10:45.114Z,6.20
2019-05-23T23:13:14.171Z,6.80
2019-05-23T23:15:42.946Z,5.43
2019-05-23T23:18:11.421Z,6.00
2019-05-23T23:20:39.845Z,5.70
2019-05-23T23:23:08.297Z,5.70
2019-05-23T23:25:36.706Z,5.63
2019-05-23T23:28:05.194Z,6.10
2019-05-23T23:30:44.115Z,5.50
2019-05-23T23:33:12.762Z,5.67
2019-05-23T23:35:41.502Z,5.93
2019-05-23T23:38:10.463Z,5.93
2019-05-23T23:40:38.869Z,5.63
2019-05-23T23:43:07.298Z,6.40
2019-05-23T23:45:57.124Z,6.47
2019-05-23T23:48:43.328Z,6.60
2019-05-23T23:51:29.556Z,5.80
2019-05-23T23:54:15.987Z,7.20
2019-05-23T23:57:02.838Z,6.20
2019-05-23T23:59:30.658Z,6.03
